La Salle, Canada
Current Conditions -  °F | °C
As of 9:00 AM on Thursday 23 Oct 2014 (Local Time) from CYWG Reporting Station
Broken Clouds Broken Clouds  
Wind Chill: 50°   Ceiling: 8100
Heat Index: 50°   Visibility: 15mi
Dew Point: 46°   Wind: 8mph
Humidity: 87%   Direction: 220°SW
Pressure: 29.77"   Gusts: NA
Location:  49.68°N, 97.27°W
Report Text: CYWG 231400Z 22007KT 15SM BKN081 10/08 A2977 RMK AC7 SLP086
Loading
Personal Weather Stations






























Interactive Weather Map New forecast layout! Learn more

10-Day Weather Forecast

Advertisements
Track Severe Weather on mobile